Brandon, SD

3:55 PM CDT on April 28, 2015 (GMT -0500)
IEM | | Change Station
CLOSE
Current Station
Personal Weather Station
Location: Brandon, SD
Elevation: 1368 ft
Nearby Weather Stations

Elev 1368 ft 43.60 °N, 96.58 °W | Updated 19 minutes ago

Mostly Cloudy
Mostly Cloudy
64 °F
Feels Like 64 °F
N
9
Wind Variable Wind from WNW
Gusts 0.0 mph

Today
High -- | Low -- °F
--% Chance of Precip.
Yesterday
High -- | Low -- °F
Precip. -- in
6:23 AM 8:24 PM
Waxing Gibbous, 76% visible
Pressure 30.17 in
Visibility 10.0 miles
Clouds Scattered Clouds 4400 ft
Overcast 5500 ft
Dew Point 52 °F
Humidity 64%
Rainfall in
Snow Depth Not available.
UV 3 out of 12
Pollen 10.40 out of 12
Air Quality Not available.
Flu Activity Sporadic
METAR KFSD 281956Z 32011KT 10SM SCT044 OVC055 18/07 A3016 RMK AO2 SLP216 T01830072

More Conditions Fewer Conditions

Pressure 30.17 in
Visibility 10.0 miles
Clouds Scattered Clouds 4400 ft
Overcast 5500 ft
Dew Point 52 °F
Humidity 64%
Rainfall in
Snow Depth Not available.
UV 3 out of 12
Pollen 10.40 out of 12
Air Quality Not available.
Flu Activity Sporadic
METAR KFSD 281956Z 32011KT 10SM SCT044 OVC055 18/07 A3016 RMK AO2 SLP216 T01830072

More Conditions Fewer Conditions

10-Day Weather Forecast

Almanac

Astronomy

Apr. 28, 2015 Rise Set
Actual Time
Civil Twilight
Nautical Twilight
Astronomical Twilight
Moon
Length of Visible Light
Length of Day
Tomorrow will be .
, % of the Moon is Illuminated

Today's Extremes

State Highs State Lows

Community

WunderPhotos

Upload Photos

1,817,749 photos uploaded!

WunderBlogs® & News

Nearby

Air Quality

  Air Quality AQ Index Pollutant
Not available.

Snow Depth

Station Depth Elevation

Earthquake Activity

City Distance Mag. Time & Date
Minimum magnitude displayed is 2.5.

Coastal Water Temperatures

Place Temperature

Stations

Nearby Weather Stations

Station Location Temp. Windchill Dew Point Humidity Wind Precip. Elev Updated Type